createdAt,value
2022-08-07T00:00:03.532Z,17.73
2022-08-07T00:02:36.200Z,17.72
2022-08-07T00:03:39.161Z,17.73
2022-08-07T00:05:19.310Z,17.72
2022-08-07T00:06:52.274Z,17.72
2022-08-07T00:08:27.239Z,17.70
2022-08-07T00:10:26.558Z,17.67
2022-08-07T00:11:53.857Z,17.63
2022-08-07T00:13:29.195Z,17.58
2022-08-07T00:15:01.370Z,17.54
2022-08-07T00:16:33.298Z,17.53
2022-08-07T00:18:19.208Z,17.49
2022-08-07T00:20:01.379Z,17.49
2022-08-07T00:21:56.269Z,17.48
2022-08-07T00:23:34.762Z,17.50
2022-08-07T00:25:16.486Z,17.49
2022-08-07T00:27:06.015Z,17.48
2022-08-07T00:28:45.700Z,17.47
2022-08-07T00:30:31.805Z,17.46
2022-08-07T00:32:04.124Z,17.44
2022-08-07T00:33:41.894Z,17.44
2022-08-07T00:35:13.813Z,17.43
2022-08-07T00:36:48.670Z,17.41
2022-08-07T00:38:31.600Z,17.39
2022-08-07T00:40:04.258Z,17.34
2022-08-07T00:41:37.419Z,17.27
2022-08-07T00:43:59.520Z,17.21
2022-08-07T00:45:17.638Z,17.21
2022-08-07T00:46:49.953Z,17.18
2022-08-07T00:48:25.099Z,17.18
2022-08-07T00:50:19.185Z,17.10
2022-08-07T00:51:58.732Z,17.08
2022-08-07T00:53:38.808Z,17.01
2022-08-07T00:55:25.601Z,17.01
2022-08-07T00:57:14.728Z,17.01
2022-08-07T00:58:49.862Z,16.99
2022-08-07T01:00:22.475Z,16.97
2022-08-07T01:01:56.694Z,16.94
2022-08-07T01:03:55.707Z,16.95
2022-08-07T01:05:24.616Z,16.96
2022-08-07T01:06:56.768Z,16.90
2022-08-07T01:08:28.732Z,16.88
2022-08-07T01:10:06.038Z,16.86
2022-08-07T01:12:23.616Z,16.88
2022-08-07T01:13:46.737Z,16.81
2022-08-07T01:15:35.646Z,16.76
2022-08-07T01:17:20.548Z,16.79
2022-08-07T01:18:52.606Z,16.77
2022-08-07T01:20:33.656Z,16.79
2022-08-07T01:22:16.225Z,16.76
2022-08-07T01:23:57.322Z,16.78
2022-08-07T01:25:53.854Z,16.76
2022-08-07T01:27:24.972Z,16.76
2022-08-07T01:29:05.599Z,16.74
2022-08-07T01:30:41.267Z,16.73
2022-08-07T01:32:15.159Z,16.70
2022-08-07T01:33:57.387Z,16.68
2022-08-07T01:35:52.651Z,16.68
2022-08-07T01:37:26.129Z,16.63
2022-08-07T01:39:10.144Z,16.65
2022-08-07T01:40:52.675Z,16.63
2022-08-07T01:42:38.077Z,16.62
2022-08-07T01:44:35.941Z,16.60
2022-08-07T01:46:12.141Z,16.56
2022-08-07T01:48:18.601Z,16.54
2022-08-07T01:52:02.735Z,16.48
2022-08-07T01:54:11.600Z,16.48
2022-08-07T01:56:03.125Z,16.45
2022-08-07T01:58:01.204Z,16.47
2022-08-07T01:59:49.824Z,16.47
2022-08-07T02:02:01.588Z,16.46
2022-08-07T02:03:54.519Z,16.40
2022-08-07T02:05:47.475Z,16.38
2022-08-07T02:07:45.067Z,16.33
2022-08-07T02:09:52.343Z,16.32
2022-08-07T02:11:30.806Z,16.38
2022-08-07T02:13:15.005Z,16.37
2022-08-07T02:14:57.637Z,16.33
2022-08-07T02:16:37.841Z,16.31
2022-08-07T02:18:11.836Z,16.27
2022-08-07T02:20:05.511Z,16.28
2022-08-07T02:21:56.568Z,16.26
2022-08-07T02:23:35.912Z,16.28
2022-08-07T02:25:17.171Z,16.26
2022-08-07T02:27:01.261Z,16.26
2022-08-07T02:28:36.838Z,16.23
2022-08-07T02:30:14.467Z,16.22
2022-08-07T02:31:48.560Z,16.23
2022-08-07T02:33:20.971Z,16.24
2022-08-07T02:34:53.997Z,16.23
2022-08-07T02:36:32.705Z,16.21
2022-08-07T02:38:11.129Z,16.19
2022-08-07T02:40:11.868Z,16.18
2022-08-07T02:41:37.583Z,16.18
2022-08-07T02:43:11.534Z,16.17
2022-08-07T02:44:48.716Z,16.17
2022-08-07T02:46:26.778Z,16.12
2022-08-07T02:48:01.978Z,16.10
2022-08-07T02:49:58.092Z,16.07
2022-08-07T02:51:49.631Z,16.08
2022-08-07T02:53:30.258Z,16.04
2022-08-07T02:55:27.409Z,16.01
2022-08-07T02:57:02.356Z,15.99
2022-08-07T02:58:47.267Z,15.97
2022-08-07T03:00:20.739Z,15.97
2022-08-07T03:01:55.449Z,15.97
2022-08-07T03:03:42.153Z,15.94
2022-08-07T03:05:25.414Z,15.92
2022-08-07T03:06:59.865Z,15.90
2022-08-07T03:08:39.453Z,15.88
2022-08-07T03:10:12.080Z,15.86
2022-08-07T03:11:52.476Z,15.85
2022-08-07T03:13:38.919Z,15.81
2022-08-07T03:15:47.397Z,15.76
2022-08-07T03:17:13.550Z,15.77
2022-08-07T03:18:46.087Z,15.78
2022-08-07T03:20:19.810Z,15.78
2022-08-07T03:21:52.610Z,15.73
2022-08-07T03:23:34.127Z,15.70
2022-08-07T03:25:21.321Z,15.70
2022-08-07T03:26:59.060Z,15.68
2022-08-07T03:28:39.434Z,15.68
2022-08-07T03:30:13.261Z,15.68
2022-08-07T03:31:49.892Z,15.66
2022-08-07T03:33:24.164Z,15.63
2022-08-07T03:35:17.711Z,15.61
2022-08-07T03:36:53.266Z,15.56
2022-08-07T03:38:29.471Z,15.56
2022-08-07T03:40:15.458Z,15.50
2022-08-07T03:41:50.939Z,15.48
2022-08-07T03:43:26.653Z,15.46
2022-08-07T03:45:05.222Z,15.46
2022-08-07T03:47:10.561Z,15.45
2022-08-07T03:48:32.731Z,15.46
2022-08-07T03:50:04.988Z,15.44
2022-08-07T03:51:47.927Z,15.42
2022-08-07T03:54:05.741Z,15.41
2022-08-07T03:55:53.034Z,15.41
2022-08-07T03:58:32.892Z,15.37
2022-08-07T03:59:13.341Z,15.30
2022-08-07T04:00:56.994Z,15.29
2022-08-07T04:02:31.977Z,15.21
2022-08-07T04:04:04.861Z,15.19
2022-08-07T04:05:50.687Z,15.18
2022-08-07T04:07:41.711Z,15.17
2022-08-07T04:09:16.291Z,15.12
2022-08-07T04:10:54.742Z,15.13
2022-08-07T04:12:47.632Z,15.09
2022-08-07T04:14:38.625Z,15.08
2022-08-07T04:16:13.416Z,15.08
2022-08-07T04:18:31.434Z,15.06
2022-08-07T04:19:52.440Z,15.05
2022-08-07T04:21:31.915Z,15.05
2022-08-07T04:23:06.444Z,15.02
2022-08-07T04:24:43.403Z,15.03
2022-08-07T04:26:21.671Z,15.03
2022-08-07T04:27:59.478Z,15.02
2022-08-07T04:29:48.662Z,15.03
2022-08-07T04:32:02.661Z,15.02
2022-08-07T04:33:19.152Z,15.03
2022-08-07T04:34:57.360Z,15.02
2022-08-07T04:36:29.896Z,15.00
2022-08-07T04:38:08.796Z,14.99
2022-08-07T04:39:47.930Z,15.01
2022-08-07T04:41:22.221Z,15.03
2022-08-07T04:43:01.846Z,15.01
2022-08-07T04:44:54.413Z,15.00
2022-08-07T04:47:03.931Z,15.00
2022-08-07T04:48:52.587Z,14.99
2022-08-07T04:50:52.920Z,15.01
2022-08-07T04:52:27.895Z,15.00
2022-08-07T04:54:17.765Z,15.01
2022-08-07T04:58:16.378Z,15.05
2022-08-07T04:59:15.938Z,15.05
2022-08-07T05:00:48.896Z,15.03
2022-08-07T05:02:24.991Z,15.04
2022-08-07T05:04:07.401Z,15.04
2022-08-07T05:05:57.310Z,15.02
2022-08-07T05:07:48.346Z,15.01
2022-08-07T05:09:45.505Z,15.04
2022-08-07T05:11:57.455Z,15.06
2022-08-07T05:14:51.993Z,15.06
2022-08-07T05:15:31.309Z,15.05
2022-08-07T05:17:11.722Z,15.08
2022-08-07T05:18:48.712Z,15.08
2022-08-07T05:20:27.223Z,15.10
2022-08-07T05:22:04.593Z,15.10
2022-08-07T05:23:42.471Z,15.14
2022-08-07T05:25:26.162Z,15.21
2022-08-07T05:27:14.513Z,15.19
2022-08-07T05:29:04.636Z,15.20
2022-08-07T05:30:39.837Z,15.21
2022-08-07T05:32:14.846Z,15.21
2022-08-07T05:34:01.051Z,15.22
2022-08-07T05:35:42.056Z,15.23
2022-08-07T05:37:25.357Z,15.27
2022-08-07T05:40:05.547Z,15.30
2022-08-07T05:41:11.955Z,15.33
2022-08-07T05:42:55.878Z,15.34
2022-08-07T05:44:31.111Z,15.36
2022-08-07T05:46:06.217Z,15.40
2022-08-07T05:48:02.158Z,15.40
2022-08-07T05:49:40.650Z,15.41
2022-08-07T05:51:14.582Z,15.43
2022-08-07T05:52:48.109Z,15.46
2022-08-07T05:54:30.845Z,15.53
2022-08-07T05:56:14.247Z,15.53
2022-08-07T05:57:54.416Z,15.56
2022-08-07T05:59:28.074Z,15.59
2022-08-07T06:01:10.504Z,15.62
2022-08-07T06:02:48.902Z,15.61
2022-08-07T06:04:29.975Z,15.64
2022-08-07T06:06:02.394Z,15.67
2022-08-07T06:08:14.171Z,15.70
2022-08-07T06:10:04.333Z,15.76
2022-08-07T06:11:20.826Z,15.78
2022-08-07T06:12:55.926Z,15.78
2022-08-07T06:14:28.684Z,15.81
2022-08-07T06:16:07.948Z,15.86
2022-08-07T06:17:53.813Z,15.88
2022-08-07T06:19:52.097Z,15.94
2022-08-07T06:22:15.027Z,16.00
2022-08-07T06:23:46.268Z,16.14
2022-08-07T06:25:10.164Z,16.21
2022-08-07T06:26:42.990Z,16.25
2022-08-07T06:28:16.087Z,16.32
2022-08-07T06:30:00.974Z,16.44
2022-08-07T06:31:47.335Z,16.44
2022-08-07T06:33:26.270Z,16.46
2022-08-07T06:35:00.119Z,16.50
2022-08-07T06:36:35.523Z,16.54
2022-08-07T06:38:19.880Z,16.60
2022-08-07T06:40:17.801Z,16.66
2022-08-07T06:42:00.941Z,16.72
2022-08-07T06:44:06.647Z,16.83
2022-08-07T06:45:44.275Z,17.00
2022-08-07T06:47:20.945Z,17.20
2022-08-07T06:48:53.868Z,17.26
2022-08-07T06:50:30.536Z,17.31
2022-08-07T06:52:07.424Z,17.36
2022-08-07T06:55:29.757Z,17.52
2022-08-07T06:55:59.877Z,17.55
2022-08-07T06:57:43.590Z,17.69
2022-08-07T07:00:15.034Z,17.85
2022-08-07T07:01:18.787Z,18.03
2022-08-07T07:02:54.491Z,18.13
2022-08-07T07:04:33.275Z,18.10
2022-08-07T07:06:11.215Z,18.07
2022-08-07T07:07:59.047Z,18.20
2022-08-07T07:09:36.214Z,18.24
2022-08-07T07:11:14.460Z,18.33
2022-08-07T07:13:16.885Z,18.34
2022-08-07T07:15:24.089Z,18.41
2022-08-07T07:17:00.452Z,18.50
2022-08-07T07:18:48.179Z,18.49
2022-08-07T07:20:24.476Z,18.53
2022-08-07T07:22:04.939Z,18.58
2022-08-07T07:24:09.835Z,18.74
2022-08-07T07:26:34.001Z,18.81
2022-08-07T07:27:35.630Z,18.95
2022-08-07T07:29:39.553Z,19.01
2022-08-07T07:31:44.179Z,19.13
2022-08-07T07:33:17.847Z,19.23
2022-08-07T07:34:57.705Z,19.36
2022-08-07T07:36:32.402Z,19.48
2022-08-07T07:38:06.454Z,19.59
2022-08-07T07:39:52.423Z,19.65
2022-08-07T07:41:30.954Z,19.79
2022-08-07T07:43:27.772Z,19.87
2022-08-07T07:45:13.062Z,19.95
2022-08-07T07:46:55.231Z,20.07
2022-08-07T07:48:34.988Z,20.21
2022-08-07T07:50:33.158Z,20.33
2022-08-07T07:52:03.313Z,20.41
2022-08-07T07:53:52.420Z,20.55
2022-08-07T07:55:27.377Z,20.68
2022-08-07T07:57:11.569Z,20.79
2022-08-07T07:58:44.038Z,20.84
2022-08-07T08:00:28.836Z,20.91
2022-08-07T08:02:10.682Z,21.03
2022-08-07T08:04:10.574Z,21.14
2022-08-07T08:05:50.438Z,21.27
2022-08-07T08:07:35.506Z,21.31
2022-08-07T08:09:17.166Z,21.38
2022-08-07T08:10:49.426Z,21.50
2022-08-07T08:12:51.289Z,21.58
2022-08-07T08:14:13.679Z,21.69
2022-08-07T08:15:58.095Z,21.83
2022-08-07T08:17:57.755Z,21.94
2022-08-07T08:20:18.311Z,22.07
2022-08-07T08:21:55.749Z,22.20
2022-08-07T08:23:52.245Z,22.35
2022-08-07T08:25:49.448Z,22.56
2022-08-07T08:27:37.425Z,22.73
2022-08-07T08:29:10.874Z,22.87
2022-08-07T08:30:51.101Z,22.92
2022-08-07T08:32:53.821Z,23.11
2022-08-07T08:34:26.985Z,23.24
2022-08-07T08:35:59.959Z,23.34
2022-08-07T08:38:00.507Z,23.54
2022-08-07T08:39:39.239Z,23.71
2022-08-07T08:42:04.003Z,23.91
2022-08-07T08:43:55.814Z,23.95
2022-08-07T08:45:59.279Z,23.94
2022-08-07T08:47:52.871Z,24.07
2022-08-07T08:49:46.877Z,24.27
2022-08-07T08:52:13.139Z,24.27
2022-08-07T08:53:35.883Z,24.50
2022-08-07T08:55:54.532Z,24.52
2022-08-07T08:57:38.103Z,24.75
2022-08-07T08:59:42.351Z,24.90
2022-08-07T09:01:40.166Z,24.95
2022-08-07T09:03:47.502Z,25.13
2022-08-07T09:05:36.674Z,25.30
2022-08-07T09:07:34.201Z,25.44
2022-08-07T09:09:57.670Z,25.65
2022-08-07T09:12:02.806Z,25.68
2022-08-07T09:13:53.940Z,25.70
2022-08-07T09:16:22.309Z,25.82
2022-08-07T09:18:01.497Z,26.06
2022-08-07T09:20:35.228Z,26.35
2022-08-07T09:24:27.454Z,26.54
2022-08-07T09:24:32.816Z,26.62
2022-08-07T09:26:34.010Z,26.58
2022-08-07T09:30:01.575Z,26.56
2022-08-07T09:30:08.969Z,26.66
2022-08-07T09:32:16.246Z,26.80
2022-08-07T09:34:22.941Z,26.95
2022-08-07T09:36:07.782Z,27.07
2022-08-07T09:37:53.465Z,27.29
2022-08-07T09:39:54.115Z,27.46
2022-08-07T09:41:58.658Z,27.72
2022-08-07T09:44:20.053Z,27.73
2022-08-07T09:47:52.677Z,27.82
2022-08-07T09:48:20.598Z,27.92
2022-08-07T09:50:19.005Z,28.13
2022-08-07T09:52:16.158Z,28.31
2022-08-07T09:54:03.411Z,28.36
2022-08-07T09:56:03.913Z,28.42
2022-08-07T09:58:05.043Z,28.42
2022-08-07T10:00:00.955Z,28.39
2022-08-07T10:02:14.134Z,28.55
2022-08-07T10:04:04.974Z,28.71
2022-08-07T10:06:00.120Z,28.94
2022-08-07T10:08:01.201Z,29.10
2022-08-07T10:10:00.239Z,28.81
2022-08-07T10:12:16.670Z,28.92
2022-08-07T10:14:00.457Z,29.07
2022-08-07T10:16:05.982Z,29.20
2022-08-07T10:18:01.849Z,29.31
2022-08-07T10:20:00.538Z,29.44
2022-08-07T10:22:12.110Z,29.59
2022-08-07T10:24:08.396Z,29.78
2022-08-07T10:25:55.924Z,29.86
2022-08-07T10:27:51.237Z,29.92
2022-08-07T10:29:45.821Z,30.13
2022-08-07T10:32:36.515Z,30.17
2022-08-07T10:34:31.942Z,30.13
2022-08-07T10:36:42.251Z,30.33
2022-08-07T10:38:48.045Z,30.35
2022-08-07T10:40:33.609Z,30.37
2022-08-07T10:42:36.309Z,29.76
2022-08-07T10:44:28.665Z,29.64
2022-08-07T10:46:20.546Z,29.88
2022-08-07T10:48:13.795Z,29.99
2022-08-07T10:50:15.165Z,29.98
2022-08-07T10:52:01.574Z,30.20
2022-08-07T10:54:00.225Z,30.37
2022-08-07T10:56:20.650Z,30.50
2022-08-07T10:58:13.902Z,30.54
2022-08-07T11:00:04.937Z,30.45
2022-08-07T11:01:51.944Z,30.47
2022-08-07T11:04:01.295Z,30.48
2022-08-07T11:06:01.700Z,30.70
2022-08-07T11:08:00.835Z,30.85
2022-08-07T11:10:07.828Z,30.89
2022-08-07T11:12:18.909Z,31.02
2022-08-07T11:14:45.763Z,31.09
2022-08-07T11:16:02.874Z,31.21
2022-08-07T11:18:03.345Z,31.20
2022-08-07T11:19:36.311Z,31.16
2022-08-07T11:21:20.732Z,30.94
2022-08-07T11:23:02.795Z,30.87
2022-08-07T11:25:14.868Z,30.87
2022-08-07T11:27:08.163Z,30.86
2022-08-07T11:29:05.698Z,30.97
2022-08-07T11:31:21.636Z,30.91
2022-08-07T11:33:53.345Z,30.94
2022-08-07T11:35:25.053Z,30.99
2022-08-07T11:37:01.276Z,31.00
2022-08-07T11:38:50.625Z,31.05
2022-08-07T11:40:49.661Z,31.17
2022-08-07T11:42:44.016Z,31.07
2022-08-07T11:44:39.675Z,31.03
2022-08-07T11:46:39.989Z,30.67
2022-08-07T11:48:35.944Z,30.34
2022-08-07T11:50:35.155Z,30.39
2022-08-07T11:52:29.374Z,30.42
2022-08-07T11:54:16.810Z,30.49
2022-08-07T11:56:27.028Z,30.68
2022-08-07T11:58:16.200Z,30.65
2022-08-07T12:00:20.241Z,30.77
2022-08-07T12:02:20.525Z,30.75
2022-08-07T12:04:17.676Z,30.75
2022-08-07T12:05:59.421Z,30.89
2022-08-07T12:07:40.475Z,30.82
2022-08-07T12:09:23.744Z,30.89
2022-08-07T12:11:20.981Z,30.86
2022-08-07T12:13:01.259Z,30.85
2022-08-07T12:14:42.868Z,31.07
2022-08-07T12:16:35.712Z,31.04
2022-08-07T12:18:16.058Z,31.02
2022-08-07T12:20:12.861Z,30.83
2022-08-07T12:22:39.401Z,30.85
2022-08-07T12:24:38.140Z,30.86
2022-08-07T12:26:44.817Z,30.85
2022-08-07T12:28:31.352Z,30.89
2022-08-07T12:30:06.073Z,30.99
2022-08-07T12:32:01.867Z,31.05
2022-08-07T12:34:01.471Z,31.18
2022-08-07T12:35:29.301Z,31.31
2022-08-07T12:37:16.952Z,31.30
2022-08-07T12:39:02.352Z,31.26
2022-08-07T12:40:47.815Z,30.95
2022-08-07T12:42:31.821Z,30.78
2022-08-07T12:44:13.107Z,30.64
2022-08-07T12:46:25.909Z,30.43
2022-08-07T12:48:27.657Z,30.31
2022-08-07T12:50:34.469Z,30.34
2022-08-07T12:52:18.125Z,30.40
2022-08-07T12:54:03.357Z,30.43
2022-08-07T12:56:02.890Z,30.50
2022-08-07T12:57:59.173Z,30.58
2022-08-07T12:59:37.122Z,30.47
2022-08-07T13:01:32.123Z,30.69
2022-08-07T13:03:56.247Z,30.76
2022-08-07T13:06:03.428Z,30.80
2022-08-07T13:08:11.958Z,30.98
2022-08-07T13:10:28.391Z,31.05
2022-08-07T13:12:29.685Z,31.09
2022-08-07T13:14:30.180Z,31.06
2022-08-07T13:16:17.624Z,30.92
2022-08-07T13:18:28.407Z,30.91
2022-08-07T13:20:10.188Z,30.89
2022-08-07T13:21:57.323Z,30.95
2022-08-07T13:24:04.497Z,30.82
2022-08-07T13:26:03.807Z,30.83
2022-08-07T13:28:13.735Z,30.77
2022-08-07T13:29:58.359Z,30.69
2022-08-07T13:31:55.075Z,30.48
2022-08-07T13:34:30.796Z,30.64
2022-08-07T13:36:00.910Z,30.70
2022-08-07T13:37:49.690Z,30.79
2022-08-07T13:40:33.924Z,30.98
2022-08-07T13:41:54.939Z,30.76
2022-08-07T13:43:27.840Z,30.80
2022-08-07T13:46:11.610Z,30.85
2022-08-07T13:46:54.801Z,30.72
2022-08-07T13:48:34.629Z,30.65
2022-08-07T13:50:34.858Z,30.66
2022-08-07T13:52:27.227Z,30.55
2022-08-07T13:54:03.356Z,30.64
2022-08-07T13:55:37.052Z,30.84
2022-08-07T13:57:23.899Z,31.04
2022-08-07T13:59:05.577Z,30.97
2022-08-07T14:00:54.025Z,30.82
2022-08-07T14:02:29.582Z,30.77
2022-08-07T14:04:35.345Z,30.76
2022-08-07T14:06:10.082Z,30.87
2022-08-07T14:08:00.722Z,31.01
2022-08-07T14:10:01.564Z,31.06
2022-08-07T14:11:28.867Z,30.95
2022-08-07T14:13:33.574Z,30.92
2022-08-07T14:15:07.738Z,30.94
2022-08-07T14:16:50.074Z,30.98
2022-08-07T14:18:30.469Z,30.84
2022-08-07T14:20:42.554Z,30.94
2022-08-07T14:22:41.318Z,30.98
2022-08-07T14:24:02.416Z,31.05
2022-08-07T14:25:39.568Z,31.09
2022-08-07T14:28:12.973Z,31.05
2022-08-07T14:30:07.995Z,31.14
2022-08-07T14:31:16.576Z,30.97
2022-08-07T14:32:56.382Z,31.05
2022-08-07T14:34:30.503Z,30.96
2022-08-07T14:36:02.820Z,31.06
2022-08-07T14:37:39.235Z,31.12
2022-08-07T14:40:17.514Z,31.04
2022-08-07T14:41:12.353Z,31.07
2022-08-07T14:43:55.665Z,31.11
2022-08-07T14:44:53.774Z,31.14
2022-08-07T14:46:33.321Z,31.08
2022-08-07T14:48:07.090Z,31.16
2022-08-07T14:49:56.771Z,31.07
2022-08-07T14:52:03.905Z,31.06
2022-08-07T14:55:20.288Z,30.96
2022-08-07T14:56:57.641Z,30.93
2022-08-07T14:58:37.557Z,30.86
2022-08-07T15:00:29.713Z,30.88
2022-08-07T15:02:31.664Z,30.90
2022-08-07T15:04:07.685Z,30.77
2022-08-07T15:05:54.644Z,30.88
2022-08-07T15:09:57.429Z,30.84
2022-08-07T15:13:22.537Z,30.77
2022-08-07T15:15:07.361Z,30.79
2022-08-07T15:17:04.977Z,30.85
2022-08-07T15:18:45.185Z,30.80
2022-08-07T15:20:32.904Z,30.81
2022-08-07T15:22:10.145Z,30.84
2022-08-07T15:25:15.911Z,30.67
2022-08-07T15:25:55.572Z,30.73
2022-08-07T15:27:30.002Z,30.81
2022-08-07T15:30:04.694Z,30.88
2022-08-07T15:31:05.678Z,30.81
2022-08-07T15:34:50.725Z,30.78
2022-08-07T15:37:03.357Z,30.71
2022-08-07T15:40:34.609Z,30.74
2022-08-07T15:42:43.668Z,30.72
2022-08-07T15:44:04.377Z,30.68
2022-08-07T15:45:56.562Z,30.63
2022-08-07T15:48:00.032Z,30.52
2022-08-07T15:50:03.964Z,30.38
2022-08-07T15:51:22.600Z,30.25
2022-08-07T15:53:25.161Z,30.14
2022-08-07T15:55:19.953Z,29.97
2022-08-07T15:56:59.397Z,29.87
2022-08-07T15:58:52.116Z,29.83
2022-08-07T16:00:33.845Z,29.82
2022-08-07T16:02:07.542Z,29.91
2022-08-07T16:03:47.136Z,29.97
2022-08-07T16:05:30.946Z,30.04
2022-08-07T16:08:33.647Z,29.97
2022-08-07T16:09:02.650Z,29.95
2022-08-07T16:10:36.757Z,29.98
2022-08-07T16:12:12.158Z,30.07
2022-08-07T16:14:03.016Z,30.07
2022-08-07T16:15:57.284Z,30.10
2022-08-07T16:18:02.993Z,30.18
2022-08-07T16:19:59.526Z,30.15
2022-08-07T16:22:33.434Z,29.96
2022-08-07T16:24:52.679Z,29.90
2022-08-07T16:26:31.216Z,29.96
2022-08-07T16:30:06.345Z,29.97
2022-08-07T16:31:50.051Z,29.95
2022-08-07T16:34:01.921Z,29.91
2022-08-07T16:35:51.841Z,29.87
2022-08-07T16:38:09.782Z,29.83
2022-08-07T16:39:48.872Z,29.74
2022-08-07T16:41:59.452Z,29.57
2022-08-07T16:44:03.998Z,29.57
2022-08-07T16:46:21.374Z,29.38
2022-08-07T16:50:28.729Z,29.31
2022-08-07T16:52:51.328Z,29.37
2022-08-07T16:54:34.913Z,29.32
2022-08-07T16:56:39.821Z,29.25
2022-08-07T16:58:20.345Z,29.20
2022-08-07T17:00:02.422Z,29.13
2022-08-07T17:01:57.257Z,29.20
2022-08-07T17:03:59.724Z,29.25
2022-08-07T17:06:28.772Z,29.21
2022-08-07T17:07:55.613Z,29.18
2022-08-07T17:10:08.442Z,29.14
2022-08-07T17:12:04.403Z,29.10
2022-08-07T17:14:18.493Z,29.07
2022-08-07T17:16:10.284Z,29.06
2022-08-07T17:18:03.667Z,29.07
2022-08-07T17:20:01.757Z,29.01
2022-08-07T17:21:50.646Z,28.82
2022-08-07T17:23:32.061Z,28.68
2022-08-07T17:25:15.225Z,28.62
2022-08-07T17:27:02.637Z,28.53
2022-08-07T17:28:56.055Z,28.52
2022-08-07T17:30:58.403Z,28.49
2022-08-07T17:32:36.815Z,28.40
2022-08-07T17:34:34.548Z,28.42
2022-08-07T17:36:31.577Z,28.35
2022-08-07T17:38:33.637Z,28.23
2022-08-07T17:40:11.392Z,28.13
2022-08-07T17:42:02.086Z,27.96
2022-08-07T17:44:02.776Z,27.86
2022-08-07T17:45:42.141Z,27.79
2022-08-07T17:47:38.104Z,27.75
2022-08-07T17:49:22.942Z,27.68
2022-08-07T17:51:59.705Z,27.49
2022-08-07T17:54:00.795Z,27.34
2022-08-07T17:56:00.834Z,27.28
2022-08-07T17:57:56.657Z,27.23
2022-08-07T17:59:39.587Z,27.21
2022-08-07T18:01:21.004Z,27.12
2022-08-07T18:02:57.650Z,27.12
2022-08-07T18:04:36.765Z,27.12
2022-08-07T18:06:16.808Z,27.08
2022-08-07T18:08:24.437Z,27.03
2022-08-07T18:10:06.388Z,27.00
2022-08-07T18:12:17.624Z,26.96
2022-08-07T18:13:49.951Z,26.92
2022-08-07T18:15:33.031Z,26.88
2022-08-07T18:18:46.956Z,26.86
2022-08-07T18:21:02.364Z,26.88
2022-08-07T18:21:53.399Z,26.89
2022-08-07T18:23:50.832Z,26.86
2022-08-07T18:25:40.410Z,26.83
2022-08-07T18:27:17.372Z,26.82
2022-08-07T18:28:57.749Z,26.80
2022-08-07T18:30:39.472Z,26.74
2022-08-07T18:32:46.393Z,26.69
2022-08-07T18:34:33.829Z,26.62
2022-08-07T18:36:39.128Z,26.55
2022-08-07T18:38:58.641Z,26.51
2022-08-07T18:40:42.701Z,26.49
2022-08-07T18:42:46.917Z,26.48
2022-08-07T18:45:43.689Z,26.37
2022-08-07T18:47:00.032Z,26.35
2022-08-07T18:50:18.927Z,26.33
2022-08-07T18:52:38.657Z,26.25
2022-08-07T18:53:39.515Z,26.15
2022-08-07T18:55:40.677Z,26.09
2022-08-07T18:57:37.033Z,26.01
2022-08-07T18:59:59.352Z,25.92
2022-08-07T19:02:18.921Z,25.89
2022-08-07T19:04:27.073Z,25.79
2022-08-07T19:06:20.486Z,25.72
2022-08-07T19:08:30.000Z,25.65
2022-08-07T19:10:12.103Z,25.55
2022-08-07T19:12:15.726Z,25.49
2022-08-07T19:14:17.136Z,25.38
2022-08-07T19:16:43.200Z,25.31
2022-08-07T19:18:34.910Z,25.15
2022-08-07T19:20:29.314Z,25.09
2022-08-07T19:22:31.423Z,25.04
2022-08-07T19:24:11.415Z,24.97
2022-08-07T19:26:24.687Z,24.85
2022-08-07T19:28:58.035Z,24.82
2022-08-07T19:31:05.815Z,24.75
2022-08-07T19:32:07.986Z,24.69
2022-08-07T19:33:44.941Z,24.64
2022-08-07T19:35:33.098Z,24.59
2022-08-07T19:37:10.259Z,24.56
2022-08-07T19:38:54.480Z,24.50
2022-08-07T19:40:31.308Z,24.46
2022-08-07T19:42:22.325Z,24.43
2022-08-07T19:44:02.928Z,24.37
2022-08-07T19:46:07.838Z,24.37
2022-08-07T19:47:43.256Z,24.33
2022-08-07T19:49:58.454Z,24.26
2022-08-07T19:51:19.298Z,24.19
2022-08-07T19:52:58.474Z,24.19
2022-08-07T19:54:45.046Z,24.18
2022-08-07T19:57:59.878Z,24.14
2022-08-07T19:58:28.392Z,24.07
2022-08-07T20:00:12.502Z,24.01
2022-08-07T20:02:02.207Z,23.95
2022-08-07T20:03:40.116Z,23.92
2022-08-07T20:05:17.272Z,23.90
2022-08-07T20:06:57.314Z,23.81
2022-08-07T20:08:33.667Z,23.82
2022-08-07T20:10:36.069Z,23.78
2022-08-07T20:12:31.281Z,23.73
2022-08-07T20:13:53.938Z,23.65
2022-08-07T20:15:33.073Z,23.64
2022-08-07T20:17:09.782Z,23.60
2022-08-07T20:18:43.452Z,23.59
2022-08-07T20:20:22.670Z,23.57
2022-08-07T20:21:58.487Z,23.50
2022-08-07T20:23:42.897Z,23.42
2022-08-07T20:25:19.849Z,23.40
2022-08-07T20:26:55.695Z,23.36
2022-08-07T20:28:30.896Z,23.34
2022-08-07T20:30:07.635Z,23.30
2022-08-07T20:31:45.218Z,23.24
2022-08-07T20:33:36.986Z,23.24
2022-08-07T20:35:16.004Z,23.23
2022-08-07T20:36:51.726Z,23.18
2022-08-07T20:38:24.586Z,23.14
2022-08-07T20:40:04.382Z,23.07
2022-08-07T20:41:40.426Z,23.04
2022-08-07T20:43:19.339Z,23.02
2022-08-07T20:44:52.257Z,22.96
2022-08-07T20:46:34.532Z,22.94
2022-08-07T20:48:28.576Z,22.91
2022-08-07T20:50:02.935Z,22.89
2022-08-07T20:51:35.761Z,22.84
2022-08-07T20:53:13.622Z,22.75
2022-08-07T20:54:53.742Z,22.71
2022-08-07T20:56:28.519Z,22.64
2022-08-07T20:58:03.639Z,22.66
2022-08-07T21:00:07.974Z,22.61
2022-08-07T21:01:45.984Z,22.57
2022-08-07T21:03:27.558Z,22.51
2022-08-07T21:05:01.356Z,22.45
2022-08-07T21:06:36.963Z,22.44
2022-08-07T21:08:14.819Z,22.44
2022-08-07T21:09:53.175Z,22.39
2022-08-07T21:11:50.015Z,22.35
2022-08-07T21:13:57.936Z,22.31
2022-08-07T21:15:22.544Z,22.31
2022-08-07T21:18:02.257Z,22.28
2022-08-07T21:19:10.305Z,22.24
2022-08-07T21:20:56.086Z,22.18
2022-08-07T21:22:30.736Z,22.17
2022-08-07T21:24:17.592Z,22.16
2022-08-07T21:26:09.579Z,22.12
2022-08-07T21:27:47.777Z,22.07
2022-08-07T21:29:55.084Z,22.00
2022-08-07T21:32:42.305Z,21.97
2022-08-07T21:33:42.113Z,21.94
2022-08-07T21:35:16.688Z,21.93
2022-08-07T21:37:14.652Z,21.88
2022-08-07T21:39:46.279Z,21.87
2022-08-07T21:41:25.201Z,21.81
2022-08-07T21:43:06.055Z,21.78
2022-08-07T21:46:08.365Z,21.75
2022-08-07T21:47:17.491Z,21.69
2022-08-07T21:49:14.426Z,21.67
2022-08-07T21:50:52.069Z,21.62
2022-08-07T21:52:40.842Z,21.63
2022-08-07T21:54:34.193Z,21.61
2022-08-07T21:56:49.025Z,21.53
2022-08-07T21:58:32.843Z,21.46
2022-08-07T22:00:22.964Z,21.38
2022-08-07T22:02:07.647Z,21.37
2022-08-07T22:03:51.776Z,21.33
2022-08-07T22:05:44.178Z,21.35
2022-08-07T22:07:22.816Z,21.30
2022-08-07T22:09:06.897Z,21.21
2022-08-07T22:10:42.330Z,21.20
2022-08-07T22:12:27.924Z,21.22
2022-08-07T22:14:15.255Z,21.18
2022-08-07T22:16:42.654Z,21.17
2022-08-07T22:18:10.023Z,21.15
2022-08-07T22:19:57.154Z,21.16
2022-08-07T22:22:04.911Z,21.14
2022-08-07T22:23:57.086Z,21.14
2022-08-07T22:25:44.206Z,21.09
2022-08-07T22:27:21.353Z,21.05
2022-08-07T22:29:13.957Z,21.03
2022-08-07T22:30:55.320Z,21.00
2022-08-07T22:32:42.311Z,20.98
2022-08-07T22:34:28.893Z,20.97
2022-08-07T22:36:28.173Z,20.96
2022-08-07T22:38:24.125Z,20.93
2022-08-07T22:40:18.738Z,20.85
2022-08-07T22:42:04.201Z,20.79
2022-08-07T22:43:56.447Z,20.82
2022-08-07T22:46:42.487Z,20.83
2022-08-07T22:48:13.673Z,20.77
2022-08-07T22:50:04.485Z,20.74
2022-08-07T22:52:07.127Z,20.72
2022-08-07T22:54:08.087Z,20.68
2022-08-07T22:56:19.354Z,20.66
2022-08-07T22:58:15.193Z,20.63
2022-08-07T23:00:06.251Z,20.59
2022-08-07T23:01:58.987Z,20.54
2022-08-07T23:03:57.912Z,20.50
2022-08-07T23:06:10.127Z,20.50
2022-08-07T23:08:24.247Z,20.44
2022-08-07T23:10:37.796Z,20.40
2022-08-07T23:12:34.054Z,20.36
2022-08-07T23:14:25.114Z,20.32
2022-08-07T23:16:43.287Z,20.29
2022-08-07T23:18:16.343Z,20.28
2022-08-07T23:20:51.055Z,20.26
2022-08-07T23:22:58.769Z,20.16
2022-08-07T23:24:45.722Z,20.13
2022-08-07T23:26:23.431Z,20.08
2022-08-07T23:28:28.619Z,20.04
2022-08-07T23:30:37.278Z,20.01
2022-08-07T23:34:23.957Z,19.94
2022-08-07T23:34:39.469Z,19.93
2022-08-07T23:36:36.792Z,19.88
2022-08-07T23:38:42.783Z,19.83
2022-08-07T23:40:27.748Z,19.80
2022-08-07T23:42:30.521Z,19.77